Tiempo atmosférico en la estación meteorológica de Puntagorda, Santa Cruz de Tenerife (684 m.)



Fecha
DESCASC
Temp. máxima en grados centígrados (hora)
DESCASC
Temp. mínima en grados centígrados (hora)
DESCASC
Temp. media en grados centígrados
DESCASC
Racha de viento máxima en m/sg (hora)
DESCASC
Velocidad máxima media en intervalos de 10 minutos(hora)
DESCASC
Precipitaciones diarias en mm
DESCASC
Precipitaciones de 00:00 a 06:00 en mm
DESCASC
Precipitaciones de 06:00 a 12:00 en mm
DESCASC
Precipitaciones de 12:00 a 18:00 en mm
DESCASC
Precipitaciones de 18:00 a 24:00 en mm
DESCASC
22-04-2019 20.6 (14:50) 10.8 (05:40) 15.7 13.06 (17:40) 7.22 (22:30) 0 0 0 0 0
21-04-2019 17 (15:20) 9.9 (06:00) 13.4 8.61 (15:10) 4.72 (15:00) 0 0 0 0 0
20-04-2019 16.2 (19:10) 10.6 (06:20) 13.4 10.83 (12:30) 5 (00:20) 0 0 0 0 0
19-04-2019 17.4 (18:50) 9.7 (06:00) 13.5 11.94 (23:50) 5.83 (23:50) 0 0 0 0 0
18-04-2019 17.4 (16:50) 10.5 (00:00) 13.9 10 (00:30) 5.56 (00:30) 0 0 0 0 0
17-04-2019 16.4 (15:30) 11.6 (00:00) 14 12.22 (15:10) 8.06 (16:40) 1.8 0 1.6 0.2 0
16-04-2019 17.4 (15:40) 11.3 (00:00) 14.3 9.17 (16:50) 5.28 (17:10) 0 0 0 0 0
15-04-2019 16.9 (16:30) 12.3 (00:00) 14.6 11.67 (00:40) 7.22 (00:40) 0 0 0 0 0
14-04-2019 17.2 (16:40) 9.7 (00:00) 13.5 10.56 (23:50) 6.11 (23:20) 0 0 0 0 0
13-04-2019 18.2 (14:50) 9.6 (00:00) 13.9 7.78 (13:50) 4.72 (13:20) 0 0 0 0 0
12-04-2019 17.4 (16:50) 8.8 (00:00) 13.1 6.39 (13:40) 3.89 (13:30) 0 0 0 0 0
11-04-2019 17 (16:40) 8.7 (00:00) 12.8 6.11 (17:20) 3.33 (12:10) 0 0 0 0 0
10-04-2019 16.9 (18:00) 9.1 (00:00) 13 6.39 (17:50) 3.06 (16:10) 0.4 0.2 0 0.2 0
09-04-2019 15.5 (12:20) 8.8 (00:00) 12.2 5.28 (15:10) 3.06 (17:30) 2.6 0 0 1.8 0.8
08-04-2019 15.9 (15:00) 10.1 (00:00) 13 9.44 (15:50) 5.28 (14:00) 0 0 0 0 0
07-04-2019 16.1 (18:20) 9.8 (00:00) 13 7.5 (18:30) 4.72 (17:00) 0 0 0 0 0
06-04-2019 15.3 (16:30) 9.7 (00:00) 12.5 12.22 (02:20) 7.5 (13:50) 0 0 0 0 0
05-04-2019 14.6 (18:00) 10 (00:00) 12.3 14.17 (19:30) 7.78 (19:20) 0.8 0.2 0.4 0.2 0
04-04-2019 15.1 (15:00) 9.4 (00:00) 12.3 12.5 (06:10) 7.5 (15:40) 3.6 2 1.4 0 0.2
03-04-2019 15 (16:10) 9.1 (05:50) 12.1 7.22 (16:00) 4.17 (05:00) 4.6 0 2.8 0.2 1.6
02-04-2019 15.7 (17:30) 9 (00:00) 12.3 10.28 (04:30) 6.67 (04:30) 5.6 5.2 0.4 0 0
01-04-2019 14 (12:20) 9.6 (00:00) 11.8 11.39 (23:59) 6.39 (21:50) 16.4 0 0 6.2 10.2
31-03-2019 16 (15:30) 10.4 (00:00) 13.2 9.72 (12:50) 6.39 (12:50) 3.2 0.8 2.4 0 0
30-03-2019 16.8 (15:40) 9 (00:00) 12.9 9.72 (14:10) 5.83 (14:00) 0.4 0 0.4 0 0
29-03-2019 15.3 (14:40) 8.6 (00:00) 12 7.78 (17:50) 3.61 (23:30) 0 0 0 0 0
28-03-2019 15.7 (18:30) 8.9 (00:00) 12.3 6.67 (15:00) 4.17 (12:40) 0 0 0 0 0
27-03-2019 16.4 (16:10) 10.5 (00:00) 13.4 7.78 (18:10) 5 (18:30) 0.2 0 0 0.2 0
26-03-2019 17.7 (16:10) 9.6 (00:00) 13.7 12.78 (14:30) 8.06 (16:30) 0.2 0 0.2 0 0
25-03-2019 13.5 (12:50) 9.4 (00:00) 11.4 6.94 (06:50) 3.89 (13:10) 12.8 7 0.8 4.8 0.2

Gráficas

Temp. máximas Temp. mínimas Temp. medias Precipitaciones Rachas de viento máximas Velocidades máximas media en intervalos de 10 minutos

Datos horarios

Fecha y hora oficial Temperatura (ºC) Velocidad del viento (km/h) Dirección del viento Racha (km/h) Dirección de racha Precipitación (mm) Presión (hPa) Tendencia (hPa) Humedad (%)
2019-04-23 23:00:00 11.1 17 Nordeste 33 Nordeste 0 -- -- 90
2019-04-23 22:00:00 11.4 14 Nordeste 38 Nordeste 0 -- -- 91
2019-04-23 21:00:00 11.8 21 Nordeste 44 Norte 0 -- -- 92
2019-04-23 20:00:00 13.8 25 Nordeste 48 Norte 0 -- -- 73
2019-04-23 19:00:00 14.4 26 Nordeste 54 Norte 0 -- -- 76
2019-04-23 18:00:00 14.9 31 Norte 51 Norte 0 -- -- 74
2019-04-23 17:00:00 15.6 26 Norte 45 Norte 0 -- -- 75
2019-04-23 16:00:00 16.6 21 Nordeste 44 Nordeste 0 -- -- 72
2019-04-23 15:00:00 15.9 23 Norte 42 Nordeste 0 -- -- 72
2019-04-23 14:00:00 14.4 26 Norte 39 Nordeste 0 -- -- 88
2019-04-23 13:00:00 13.5 23 Norte 41 Nordeste 0.2 -- -- 97
2019-04-23 12:00:00 13.2 23 Norte 39 Norte 0.6 -- -- 99
2019-04-23 11:00:00 14 18 Norte 30 Norte 0.2 -- -- 97
2019-04-23 10:00:00 13.1 15 Norte 36 Nordeste 0 -- -- 96
2019-04-23 09:00:00 13.8 19 Nordeste 41 Nordeste 0 -- -- 82
2019-04-23 08:00:00 12.2 20 Nordeste 44 Norte 0 -- -- 84
2019-04-23 07:00:00 12.5 21 Nordeste 43 Nordeste 0 -- -- 87
2019-04-23 06:00:00 11.9 24 Nordeste 44 Norte 0 -- -- 93
2019-04-23 05:00:00 12.2 23 Norte 39 Norte 0 -- -- 94
2019-04-23 04:00:00 12.2 18 Nordeste 40 Nordeste 0 -- -- 89
2019-04-23 03:00:00 12.4 18 Nordeste 43 Norte 0 -- -- 87
2019-04-23 02:00:00 12.5 29 Nordeste 50 Nordeste 0 -- -- 89
2019-04-23 01:00:00 12.1 22 Nordeste 42 Nordeste 0 -- -- 92
2019-04-23 00:00:00 11.8 19 Nordeste 38 Nordeste 0 -- -- 94
2019-04-22 23:00:00 12.1 21 Nordeste 42 Nordeste 0 -- -- 94
2019-04-22 22:00:00 12 22 Nordeste 45 Nordeste 0 -- -- 94
2019-04-22 21:00:00 12.6 22 Nordeste 38 Nordeste 0 -- -- 92
2019-04-22 20:00:00 14.6 22 Nordeste 40 Nordeste 0 -- -- 82
2019-04-22 19:00:00 15.9 22 Nordeste 40 Nordeste 0 -- -- 80
2019-04-22 18:00:00 16.6 19 Nordeste 47 Nordeste 0 -- -- 79
2019-04-22 17:00:00 17.2 20 Nordeste 40 Norte 0 -- -- 76
2019-04-22 16:00:00 18.6 14 Nordeste 26 Norte 0 -- -- 71
2019-04-22 15:00:00 20.3 12 Norte 35 Nordeste 0 -- -- 66
2019-04-22 14:00:00 17.7 21 Nordeste 38 Norte 0 -- -- 75
2019-04-22 13:00:00 17 17 Nordeste 30 Norte 0 -- -- 78
2019-04-22 12:00:00 15.9 16 Nordeste 29 Nordeste 0 -- -- 81
2019-04-22 11:00:00 16 5 Nordeste 17 Este 0 -- -- 79
2019-04-22 10:00:00 13.8 13 Nordeste 32 Nordeste 0 -- -- 90
2019-04-22 09:00:00 11.9 20 Nordeste 35 Nordeste 0 -- -- 95
2019-04-22 08:00:00 11.4 22 Nordeste 39 Nordeste 0 -- -- 96
2019-04-22 07:00:00 11.4 19 Nordeste 32 Nordeste 0 -- -- 97
2019-04-22 06:00:00 11.1 11 Nordeste 26 Nordeste 0 -- -- 95
2019-04-22 05:00:00 11.6 16 Nordeste 28 Nordeste 0 -- -- 96
2019-04-22 04:00:00 11 13 Este 30 Nordeste 0 -- -- 92
2019-04-22 03:00:00 11.5 13 Este 28 Nordeste 0 -- -- 91
2019-04-22 02:00:00 11.4 18 Nordeste 29 Nordeste 0 -- -- 89
2019-04-22 01:00:00 11.5 13 Este 30 Este 0 -- -- 89
2019-04-22 00:00:00 12 10 Este 23 Este 0 -- -- 90
2019-04-21 23:00:00 12.2 10 Este 26 Este 0 -- -- 87
2019-04-21 22:00:00 12.6 8 Este 25 Nordeste 0 -- -- 89
2019-04-21 21:00:00 12.8 9 Nordeste 19 Norte 0 -- -- 92
2019-04-21 20:00:00 13.9 9 Nordeste 20 Norte 0 -- -- 89
2019-04-21 19:00:00 14.3 15 Norte 26 Norte 0 -- -- 89
2019-04-21 18:00:00 14.5 14 Norte 26 Nordeste 0 -- -- 88
2019-04-21 17:00:00 14.7 9 Norte 28 Norte 0 -- -- 87
2019-04-21 16:00:00 16.2 17 Norte 31 Norte 0 -- -- 79
2019-04-21 15:00:00 16.3 17 Norte 30 Norte 0 -- -- 75
2019-04-21 14:00:00 15.3 7 Sudoeste 16 Sudoeste 0 -- -- 79
2019-04-21 13:00:00 15.7 7 Sudoeste 19 Sudoeste 0 -- -- 74
2019-04-21 12:00:00 15 5 Sudoeste 14 Sudoeste 0 -- -- 76
2019-04-21 11:00:00 15.1 6 Sudoeste 13 Sudoeste 0 -- -- 72
2019-04-21 10:00:00 14 7 Nordeste 23 Nordeste 0 -- -- 72
2019-04-21 09:00:00 11.6 8 Nordeste 24 Nordeste 0 -- -- 80
2019-04-21 08:00:00 10.4 7 Nordeste 16 Nordeste 0 -- -- 85
2019-04-21 07:00:00 10.2 2 Sudeste 12 Este 0 -- -- 83
2019-04-21 06:00:00 9.9 6 Este 10 Este 0 -- -- 85
2019-04-21 05:00:00 10.7 4 Nordeste 11 Este 0 -- -- 86
2019-04-21 04:00:00 11.9 5 Sudeste 28 Nordeste 0 -- -- 80
2019-04-21 03:00:00 12 4 Este 24 Este 0 -- -- 80
2019-04-21 02:00:00 12.7 9 Este 30 Nordeste 0 -- -- 76
2019-04-21 01:00:00 12.6 6 Nordeste 22 Sudeste 0 -- -- 83
2019-04-21 00:00:00 12.1 5 Este 21 Este 0 -- -- 82
2019-04-20 23:00:00 11.7 7 Nordeste 17 Este 0 -- -- 86
2019-04-20 22:00:00 12.3 9 Este 26 Nordeste 0 -- -- 82
2019-04-20 21:00:00 12.7 12 Nordeste 26 Nordeste 0 -- -- 85
2019-04-20 20:00:00 15.5 4 Sudoeste 28 Noroeste 0 -- -- 77
2019-04-20 19:00:00 16.1 10 Nordeste 33 Norte 0 -- -- 68
2019-04-20 18:00:00 15.1 7 Sur 17 Noroeste 0 -- -- 72
2019-04-20 17:00:00 15.3 7 Sudoeste 25 Nordeste 0 -- -- 74
2019-04-20 16:00:00 15.3 4 Sudoeste 30 Norte 0 -- -- 75
2019-04-20 15:00:00 15.8 7 Nordeste 19 Sur 0 -- -- 73
2019-04-20 14:00:00 14.8 15 Sur 21 Sur 0 -- -- 78
2019-04-20 13:00:00 14.3 7 Sur 39 Sudeste 0 -- -- 81
2019-04-20 12:00:00 14.2 6 Oeste 22 Oeste 0 -- -- 82
2019-04-20 11:00:00 14.6 6 Sudoeste 35 Nordeste 0 -- -- 75
2019-04-20 10:00:00 12.5 14 Nordeste 36 Nordeste 0 -- -- 79
2019-04-20 09:00:00 12.8 6 Este 31 Nordeste 0 -- -- 80
2019-04-20 08:00:00 11.8 7 Nordeste 29 Este 0 -- -- 90
2019-04-20 07:00:00 10.9 9 Este 22 Nordeste 0 -- -- 83
2019-04-20 06:00:00 11 8 Nordeste 17 Norte 0 -- -- 86
2019-04-20 05:00:00 11.6 2 Nordeste 12 Sur 0 -- -- 92
2019-04-20 04:00:00 11.7 8 Sudeste 23 Nordeste 0 -- -- 88
2019-04-20 03:00:00 11.7 8 Este 31 Nordeste 0 -- -- 92
2019-04-20 02:00:00 12.2 14 Nordeste 30 Este 0 -- -- 87
2019-04-20 01:00:00 12 11 Este 32 Nordeste 0 -- -- 81
2019-04-20 00:00:00 12.3 16 Nordeste 43 Este 0 -- -- 81
2019-04-19 23:00:00 12.3 9 Nordeste 21 Norte 0 -- -- 83
2019-04-19 22:00:00 13.2 4 Este 13 Sur 0 -- -- 84
2019-04-19 21:00:00 13.7 5 Oeste 19 Sur 0 -- -- 82
2019-04-19 20:00:00 16 6 Sudoeste 16 Oeste 0 -- -- 76
2019-04-19 19:00:00 17.3 8 Sudoeste 17 Sur 0 -- -- 69
2019-04-19 18:00:00 17.1 8 Sudoeste 19 Sudoeste 0 -- -- 72
2019-04-19 17:00:00 16 9 Sudoeste 18 Sur 0 -- -- 80
2019-04-19 16:00:00 16.2 6 Sudoeste 21 Sur 0 -- -- 77
2019-04-19 15:00:00 15.9 9 Sur 17 Sur 0 -- -- 78
2019-04-19 14:00:00 15.7 9 Sudoeste 18 Sudoeste 0 -- -- 81
2019-04-19 13:00:00 15.6 7 Sudoeste 17 Sur 0 -- -- 82
2019-04-19 12:00:00 14.9 11 Sur 18 Sur 0 -- -- 83
2019-04-19 11:00:00 14.8 8 Sudoeste 20 Noroeste 0 -- -- 80
2019-04-19 10:00:00 13.3 5 Sudoeste 11 Sur 0 -- -- 82
2019-04-19 09:00:00 10.5 4 Sur 10 Sudeste 0 -- -- 94
2019-04-19 08:00:00 9.9 4 Sur 13 Sudeste 0 -- -- 93
2019-04-19 07:00:00 9.7 6 Sudeste 9 Sudeste 0 -- -- 95
2019-04-19 06:00:00 9.7 4 Este 9 Sur 0 -- -- 93
2019-04-19 05:00:00 10.5 4 Sur 10 Sur 0 -- -- 92
2019-04-19 04:00:00 10.3 4 Nordeste 13 Norte 0 -- -- 89
2019-04-19 03:00:00 10.9 5 Nordeste 17 Nordeste 0 -- -- 86
2019-04-19 02:00:00 10.9 12 Nordeste 22 Norte 0 -- -- 83
2019-04-19 01:00:00 11.4 12 Nordeste 32 Norte 0 -- -- 83
2019-04-19 00:00:00 11.8 12 Nordeste 29 Nordeste 0 -- -- 84
2019-04-18 23:00:00 12.4 8 Nordeste 20 Nordeste 0 -- -- 80
2019-04-18 22:00:00 12.9 8 Norte 19 Nordeste 0 -- -- 77
2019-04-18 21:00:00 13.4 5 Este 15 Sudoeste 0 -- -- 77
2019-04-18 20:00:00 14.6 9 Sur 17 Sur 0 -- -- 80
2019-04-18 19:00:00 15 8 Sur 17 Sudoeste 0 -- -- 76
2019-04-18 18:00:00 15.7 9 Sudoeste 24 Norte 0 -- -- 71
2019-04-18 17:00:00 16.7 8 Sudoeste 31 Norte 0 -- -- 67
2019-04-18 16:00:00 15.6 3 Oeste 16 Sur 0 -- -- 71
2019-04-18 15:00:00 15.4 6 Sudoeste 24 Norte 0 -- -- 72
2019-04-18 14:00:00 15.9 9 Este 31 Este 0 -- -- 69
2019-04-18 13:00:00 15.7 10 Norte 33 Nordeste 0 -- -- 68
2019-04-18 12:00:00 14.3 14 Nordeste 32 Nordeste 0 -- -- 75
2019-04-18 11:00:00 14.4 16 Norte 32 Norte 0 -- -- 76
2019-04-18 10:00:00 13.6 13 Nordeste 32 Norte 0 -- -- 69
2019-04-18 09:00:00 11.4 16 Nordeste 31 Nordeste 0 -- -- 75
2019-04-18 08:00:00 10.7 13 Nordeste 27 Nordeste 0 -- -- 83
2019-04-18 07:00:00 10.7 12 Nordeste 27 Este 0 -- -- 85
2019-04-18 06:00:00 10.9 15 Nordeste 28 Nordeste 0 -- -- 80
2019-04-18 05:00:00 11.1 14 Nordeste 26 Nordeste 0 -- -- 84
2019-04-18 04:00:00 10.6 10 Este 23 Este 0 -- -- 84
2019-04-18 03:00:00 11.2 12 Nordeste 30 Este 0 -- -- 86
2019-04-18 02:00:00 11.6 14 Nordeste 32 Nordeste 0 -- -- 88
2019-04-18 01:00:00 11.6 15 Nordeste 36 Nordeste 0 -- -- 85
2019-04-18 00:00:00 12.2 21 Nordeste 37 Nordeste 0 -- -- 73
2019-04-17 23:00:00 11.9 19 Nordeste 41 Nordeste 0 -- -- 89
2019-04-17 22:00:00 12.2 27 Nordeste 41 Nordeste 0 -- -- 79
2019-04-17 21:00:00 12.4 21 Nordeste 41 Norte 0 -- -- 86
2019-04-17 20:00:00 14.1 21 Nordeste 42 Norte 0 -- -- 81
2019-04-17 19:00:00 15.1 24 Norte 42 Norte 0 -- -- 79
2019-04-17 18:00:00 15.8 25 Norte 41 Nordeste 0 -- -- 76
2019-04-17 17:00:00 16.4 25 Norte 40 Norte 0 -- -- 75
2019-04-17 16:00:00 16.1 27 Norte 44 Norte 0 -- -- 72
2019-04-17 15:00:00 16 25 Norte 43 Norte 0.2 -- -- 71
2019-04-17 14:00:00 15.5 27 Norte 40 Norte 0 -- -- 78
2019-04-17 13:00:00 15.7 17 Nordeste 32 Norte 0 -- -- 79
2019-04-17 12:00:00 15.2 12 Nordeste 24 Nordeste 0 -- -- 82
2019-04-17 11:00:00 14.2 14 Nordeste 24 Norte 0 -- -- 87
2019-04-17 10:00:00 13.5 9 Nordeste 26 Nordeste 0 -- -- 91
2019-04-17 09:00:00 12.4 11 Nordeste 23 Este 0 -- -- 90
2019-04-17 08:00:00 13.3 5 Norte 14 Sudoeste 1 -- -- 98
2019-04-17 07:00:00 12.9 5 Sur 17 Sudeste 0.6 -- -- 97
2019-04-17 06:00:00 13.3 4 Sudoeste 13 Sudeste 0 -- -- 91
2019-04-17 05:00:00 12.8 2 Norte 12 Sudeste 0 -- -- 87
2019-04-17 04:00:00 12.3 4 Sudeste 8 Sudeste 0 -- -- 91
2019-04-17 03:00:00 11.8 3 Sur 12 Este 0 -- -- 89
2019-04-17 02:00:00 12.3 4 Este 10 Sudeste 0 -- -- 88
2019-04-17 01:00:00 12.3 2 Sudeste 17 Norte 0 -- -- 87
2019-04-17 00:00:00 12.2 4 Sudeste 16 Nordeste 0 -- -- 79
2019-04-16 23:00:00 11.3 4 Nordeste 12 Norte 0 -- -- 80
2019-04-16 22:00:00 11.7 4 Sudeste 13 Sudoeste 0 -- -- 80
2019-04-16 21:00:00 12.9 6 Sudoeste 23 Sur 0 -- -- 77
2019-04-16 20:00:00 13.7 10 Sudoeste 19 Sudoeste 0 -- -- 85
2019-04-16 19:00:00 14 14 Sudoeste 26 Sudoeste 0 -- -- 84
2019-04-16 18:00:00 15.4 14 Sudoeste 32 Sudoeste 0 -- -- 76
2019-04-16 17:00:00 16.4 17 Sudoeste 33 Sudoeste 0 -- -- 70
2019-04-16 16:00:00 17.4 16 Sudoeste 27 Sur 0 -- -- 63
2019-04-16 15:00:00 16.9 12 Oeste 22 Sudoeste 0 -- -- 65
2019-04-16 14:00:00 16.7 11 Sudoeste 23 Sudoeste 0 -- -- 64
2019-04-16 13:00:00 16.4 10 Oeste 18 Sudoeste 0 -- -- 69
2019-04-16 12:00:00 15.7 9 Oeste 16 Oeste 0 -- -- 69
2019-04-16 11:00:00 14.8 8 Oeste 15 Oeste 0 -- -- 70
2019-04-16 10:00:00 14.1 6 Sudoeste 10 Sudoeste 0 -- -- 73
2019-04-16 09:00:00 11.6 3 Sur 10 Sudeste 0 -- -- 86
2019-04-16 08:00:00 11.5 2 Norte 6 Sudeste 0 -- -- 86
2019-04-16 07:00:00 11.3 3 Este 8 Sudeste 0 -- -- 85
2019-04-16 06:00:00 11.3 6 Este 10 Sudeste 0 -- -- 87
2019-04-16 05:00:00 11.7 6 Sudeste 9 Sur 0 -- -- 87
2019-04-16 04:00:00 13.5 2 Sur 5 Sur 0 -- -- 86
2019-04-16 03:00:00 13.8 2 Sudoeste 4 Sur 0 -- -- 90
2019-04-16 02:00:00 13.9 3 Sur 8 Oeste 0 -- -- 90
2019-04-16 01:00:00 13.9 4 Oeste 12 Oeste 0 -- -- 88
2019-04-16 00:00:00 14.2 4 Sur 6 Sur 0 -- -- 95
2019-04-15 23:00:00 14.3 0 Calma 3 Sur 0 -- -- 92
2019-04-15 22:00:00 14.6 2 Sudoeste 4 Este 0 -- -- 94
2019-04-15 21:00:00 14.7 2 Norte 8 Oeste 0 -- -- 89
2019-04-15 20:00:00 15.4 4 Noroeste 8 Oeste 0 -- -- 88
2019-04-15 19:00:00 16.1 5 Sudoeste 10 Sudoeste 0 -- -- 88
2019-04-15 18:00:00 16 5 Sudoeste 13 Sudoeste 0 -- -- 83
2019-04-15 17:00:00 16.5 9 Sudoeste 17 Sur 0 -- -- 81
2019-04-15 16:00:00 16.5 8 Sudoeste 17 Sudoeste 0 -- -- 79
2019-04-15 15:00:00 15.9 6 Sudoeste 19 Sur 0 -- -- 83
2019-04-15 14:00:00 16.1 10 Sudoeste 18 Sudoeste 0 -- -- 81
2019-04-15 13:00:00 15.8 8 Sudoeste 14 Sudoeste 0 -- -- 86
2019-04-15 12:00:00 14.5 7 Sudoeste 12 Sudoeste 0 -- -- 95
2019-04-15 11:00:00 13.6 6 Norte 16 Norte 0 -- -- 98
2019-04-15 10:00:00 13.5 2 Sudoeste 11 Sur 0 -- -- 95
2019-04-15 09:00:00 13.1 0 Calma 6 Sudoeste 0 -- -- 93
2019-04-15 08:00:00 12.9 3 Este 7 Nordeste 0 -- -- 97
2019-04-15 07:00:00 12.9 3 Nordeste 19 Norte 0 -- -- 93
2019-04-15 06:00:00 13.5 8 Norte 24 Este 0 -- -- 88
2019-04-15 05:00:00 13.9 8 Norte 27 Nordeste 0 -- -- 85
2019-04-15 04:00:00 13.8 17 Nordeste 36 Nordeste 0 -- -- 85
2019-04-15 03:00:00 13.2 15 Nordeste 38 Nordeste 0 -- -- 84
2019-04-15 02:00:00 12.4 16 Nordeste 35 Nordeste 0 -- -- 88
2019-04-15 01:00:00 12.8 20 Nordeste 42 Norte 0 -- -- 90
2019-04-15 00:00:00 13.4 20 Nordeste 38 Nordeste 0 -- -- 77
2019-04-14 23:00:00 12.7 15 Nordeste 33 Nordeste 0 -- -- 79
2019-04-14 22:00:00 12.4 15 Nordeste 30 Nordeste 0 -- -- 87
2019-04-14 21:00:00 13.1 15 Nordeste 25 Norte 0 -- -- 90
2019-04-14 20:00:00 13.7 14 Nordeste 23 Norte 0 -- -- 89
2019-04-14 19:00:00 13.9 11 Noroeste 17 Norte 0 -- -- 90
2019-04-14 18:00:00 14.2 8 Oeste 22 Sudoeste 0 -- -- 89
2019-04-14 17:00:00 16.1 13 Sudoeste 23 Sudoeste 0 -- -- 77
2019-04-14 16:00:00 15.8 11 Sudoeste 23 Sur 0 -- -- 81
2019-04-14 15:00:00 15.5 10 Oeste 20 Oeste 0 -- -- 82
2019-04-14 14:00:00 15.9 10 Noroeste 20 Oeste 0 -- -- 80
2019-04-14 13:00:00 15.8 8 Noroeste 18 Noroeste 0 -- -- 78
2019-04-14 12:00:00 15.1 11 Noroeste 19 Norte 0 -- -- 76
2019-04-14 11:00:00 14.4 11 Norte 18 Norte 0 -- -- 83
2019-04-14 10:00:00 13.1 5 Sur 9 Sur 0 -- -- 79
2019-04-14 09:00:00 11.8 4 Sur 13 Sudeste 0 -- -- 94
2019-04-14 08:00:00 11.3 6 Sur 13 Sudeste 0 -- -- 70
2019-04-14 07:00:00 10.8 7 Sur 13 Sur 0 -- -- 88
2019-04-14 06:00:00 10.3 3 Sur 10 Nordeste 0 -- -- 70
2019-04-14 05:00:00 10.7 7 Nordeste 11 Norte 0 -- -- 96
2019-04-14 04:00:00 10.6 0 Calma 6 Sudeste 0 -- -- 85
2019-04-14 03:00:00 10.9 2 Este 8 Nordeste 0 -- -- 84
2019-04-14 02:00:00 11.4 2 Sur 8 Norte 0 -- -- 89
2019-04-14 01:00:00 11.8 5 Norte 9 Sudeste 0 -- -- 95
2019-04-14 00:00:00 11.7 5 Este 14 Nordeste 0 -- -- 88
2019-04-13 23:00:00 12.5 10 Sur 17 Este 0 -- -- 96
2019-04-13 22:00:00 13 6 Nordeste 13 Sur 0 -- -- 94
2019-04-13 21:00:00 13.5 12 Sur 16 Sur 0 -- -- 93
2019-04-13 20:00:00 14.8 8 Sur 15 Sur 0 -- -- 87
2019-04-13 19:00:00 16.3 7 Oeste 17 Sudoeste 0 -- -- 81
2019-04-13 18:00:00 14.9 11 Sur 18 Sur 0 -- -- 87
2019-04-13 17:00:00 16.4 11 Sur 22 Sur 0 -- -- 79
2019-04-13 16:00:00 18.1 10 Sudoeste 22 Sur 0 -- -- 71
2019-04-13 15:00:00 18 13 Sudoeste 26 Sur 0 -- -- 69
2019-04-13 14:00:00 18.1 14 Sur 28 Sudoeste 0 -- -- 67
2019-04-13 13:00:00 17.4 9 Sur 16 Sur 0 -- -- 71
2019-04-13 12:00:00 15.6 8 Sur 14 Sur 0 -- -- 80
2019-04-13 11:00:00 13.8 6 Oeste 12 Oeste 0 -- -- 87
2019-04-13 10:00:00 13.8 8 Sur 14 Sur 0 -- -- 81
2019-04-13 09:00:00 10.8 5 Sur 10 Sudeste 0 -- -- 86
2019-04-13 08:00:00 10.3 6 Sur 13 Sudeste 0 -- -- 79
2019-04-13 07:00:00 9.6 3 Este 6 Este 0 -- -- 92
2019-04-13 06:00:00 10.1 4 Sur 8 Sur 0 -- -- 94
2019-04-13 05:00:00 11.2 3 Sudeste 11 Sudoeste 0 -- -- 95
2019-04-13 04:00:00 10.6 8 Sur 12 Sur 0 -- -- 93
2019-04-13 03:00:00 10.7 3 Oeste 10 Sudeste 0 -- -- 94
2019-04-13 02:00:00 11.1 4 Sur 10 Sur 0 -- -- 95
2019-04-13 01:00:00 11.1 4 Sudeste 11 Sudeste 0 -- -- 93
2019-04-13 00:00:00 11.4 5 Sur 10 Sur 0 -- -- 92
2019-04-12 23:00:00 11.6 5 Sudeste 11 Sur 0 -- -- 92
2019-04-12 22:00:00 12.1 2 Sudeste 10 Sur 0 -- -- 90
2019-04-12 21:00:00 13 3 Sur 13 Sudoeste 0 -- -- 87
2019-04-12 20:00:00 14.9 9 Sur 18 Sur 0 -- -- 76
2019-04-12 19:00:00 16.5 10 Sur 18 Sudoeste 0 -- -- 70
2019-04-12 18:00:00 16.9 9 Sudoeste 20 Sudoeste 0 -- -- 69
2019-04-12 17:00:00 16.8 8 Sudoeste 19 Sudoeste 0 -- -- 69
2019-04-12 16:00:00 15.9 8 Sur 17 Sudoeste 0 -- -- 73
2019-04-12 15:00:00 15.6 8 Sudoeste 22 Sur 0 -- -- 75
2019-04-12 14:00:00 15.7 11 Sudoeste 23 Sur 0 -- -- 75
2019-04-12 13:00:00 15.9 10 Sur 19 Sudoeste 0 -- -- 75
2019-04-12 12:00:00 15 9 Sur 17 Sudoeste 0 -- -- 79
2019-04-12 11:00:00 13.5 5 Oeste 13 Sudoeste 0 -- -- 82
2019-04-12 10:00:00 12.7 9 Sur 17 Sur 0 -- -- 87
2019-04-12 09:00:00 10.9 6 Sur 13 Sudeste 0 -- -- 93
2019-04-12 08:00:00 9.7 8 Sudeste 14 Sudeste 0 -- -- 91
2019-04-12 07:00:00 9 4 Sur 13 Sudeste 0 -- -- 88
2019-04-12 06:00:00 9.3 5 Este 11 Norte 0 -- -- 87
2019-04-12 05:00:00 9.2 4 Nordeste 12 Nordeste 0 -- -- 89
2019-04-12 04:00:00 9.9 3 Este 12 Nordeste 0 -- -- 92
2019-04-12 03:00:00 10.3 6 Sur 12 Sur 0 -- -- 91
2019-04-12 02:00:00 11.2 4 Sudeste 13 Sur 0 -- -- 92
2019-04-12 01:00:00 11 6 Sur 12 Sur 0 -- -- 95
2019-04-12 00:00:00 11.1 4 Sur 13 Sudeste 0 -- -- 90
2019-04-11 23:00:00 11.2 3 Sur 14 Sudeste 0 -- -- 90
2019-04-11 22:00:00 12.1 7 Sur 12 Sur 0 -- -- 90
2019-04-11 21:00:00 12.8 5 Sur 13 Sur 0 -- -- 83
2019-04-11 20:00:00 15.4 6 Sur 15 Sur 0 -- -- 72
2019-04-11 19:00:00 16.5 8 Sudoeste 17 Sudoeste 0 -- -- 69
2019-04-11 18:00:00 15.7 7 Sudoeste 22 Sudoeste 0 -- -- 71
2019-04-11 17:00:00 16.7 10 Oeste 20 Sur 0 -- -- 70
2019-04-11 16:00:00 16.6 9 Sudoeste 20 Oeste 0 -- -- 72
2019-04-11 15:00:00 16.3 9 Oeste 19 Sudoeste 0 -- -- 72
2019-04-11 14:00:00 15.7 10 Sudoeste 18 Sur 0 -- -- 73
2019-04-11 13:00:00 16 11 Sudoeste 20 Sudoeste 0 -- -- 73
2019-04-11 12:00:00 15.3 10 Sur 17 Sur 0 -- -- 72
2019-04-11 11:00:00 13.8 6 Sudoeste 14 Sur 0 -- -- 75
2019-04-11 10:00:00 12.1 3 Oeste 6 Sur 0 -- -- 84
2019-04-11 09:00:00 9.9 4 Sudeste 10 Sudeste 0 -- -- 93
2019-04-11 08:00:00 9 6 Este 9 Este 0 -- -- 91
2019-04-11 07:00:00 8.7 6 Sudeste 13 Sudeste 0 -- -- 90
2019-04-11 06:00:00 9 4 Sudeste 9 Sudeste 0 -- -- 89
2019-04-11 05:00:00 9.3 6 Sudeste 13 Sudeste 0 -- -- 89
2019-04-11 04:00:00 10.1 10 Sudeste 14 Sudeste 0 -- -- 88
2019-04-11 03:00:00 10 8 Sudeste 14 Sudeste 0 -- -- 91
2019-04-11 02:00:00 10.2 6 Sudeste 15 Sudeste 0 -- -- 88
2019-04-11 01:00:00 9.8 6 Este 9 Este 0 -- -- 88
2019-04-11 00:00:00 10.9 4 Este 8 Sudeste 0 -- -- 87
2019-04-10 23:00:00 12.5 2 Este 10 Sur 0 -- -- 86
2019-04-10 22:00:00 12.9 4 Oeste 13 Sur 0 -- -- 84
2019-04-10 21:00:00 13.4 5 Sudoeste 11 Sudoeste 0 -- -- 86
2019-04-10 20:00:00 15.2 7 Sudoeste 17 Sur 0 -- -- 78
2019-04-10 19:00:00 16 8 Sudoeste 16 Sudoeste 0 -- -- 74
2019-04-10 18:00:00 16.9 9 Sudoeste 23 Sur 0 -- -- 71
2019-04-10 17:00:00 15.4 8 Sudoeste 20 Oeste 0.2 -- -- 76
2019-04-10 16:00:00 14.9 8 Sudoeste 16 Oeste 0 -- -- 78
2019-04-10 15:00:00 15.3 9 Sudoeste 17 Sur 0 -- -- 76
2019-04-10 14:00:00 15.4 8 Sudoeste 17 Sudoeste 0 -- -- 77
2019-04-10 13:00:00 15 8 Oeste 16 Sudoeste 0 -- -- 75
2019-04-10 12:00:00 14.5 8 Sudoeste 15 Oeste 0 -- -- 79
2019-04-10 11:00:00 13.6 6 Norte 12 Noroeste 0 -- -- 79
2019-04-10 10:00:00 12.3 4 Sur 8 Sur 0 -- -- 86
2019-04-10 09:00:00 10 3 Sur 12 Sudeste 0 -- -- 90
2019-04-10 08:00:00 9.3 6 Sudeste 10 Nordeste 0 -- -- 90
2019-04-10 07:00:00 9.5 6 Este 10 Sudeste 0 -- -- 96
2019-04-10 06:00:00 9.8 6 Sudeste 10 Sudeste 0 -- -- 94
2019-04-10 05:00:00 10.1 3 Nordeste 8 Este 0 -- -- 97
2019-04-10 04:00:00 9.5 5 Este 10 Sudeste 0 -- -- 96
2019-04-10 03:00:00 9.9 8 Este 12 Sudeste 0 -- -- 95
2019-04-10 02:00:00 10 5 Este 9 Sudeste 0.2 -- -- 94
2019-04-10 01:00:00 10.6 4 Este 8 Sudeste 0 -- -- 96
2019-04-10 00:00:00 10.8 6 Sudeste 8 Sudeste 0 -- -- 96
2019-04-09 23:00:00 11.1 2 Nordeste 8 Sudeste 0 -- -- 96
2019-04-09 22:00:00 11.9 3 Este 5 Este 0 -- -- 95
2019-04-09 21:00:00 13.1 2 Sur 6 Sudoeste 0 -- -- 98
2019-04-09 20:00:00 13.3 3 Sudoeste 9 Este 0 -- -- 97
2019-04-09 19:00:00 13.6 2 Sudoeste 9 Oeste 0.8 -- -- 96
2019-04-09 18:00:00 14 6 Sudoeste 17 Sur 0 -- -- 95
2019-04-09 17:00:00 14.4 5 Sudoeste 14 Oeste 0.2 -- -- 95
2019-04-09 16:00:00 14.5 4 Sudoeste 19 Norte 1.2 -- -- 94
2019-04-09 15:00:00 15 6 Sur 15 Sudeste 0.4 -- -- 90
2019-04-09 14:00:00 15.1 9 Sudoeste 14 Sudoeste 0 -- -- 86
2019-04-09 13:00:00 15.1 4 Noroeste 18 Sudoeste 0 -- -- 85
2019-04-09 12:00:00 14.3 6 Sudoeste 15 Sur 0 -- -- 86
2019-04-09 11:00:00 12.9 6 Sur 11 Sudoeste 0 -- -- 88
2019-04-09 10:00:00 12.7 2 Norte 15 Norte 0 -- -- 91
2019-04-09 09:00:00 10 3 Este 9 Este 0 -- -- 87
2019-04-09 08:00:00 8.8 6 Sudeste 9 Sudeste 0 -- -- 89
2019-04-09 07:00:00 9.4 3 Sur 10 Sudeste 0 -- -- 88
2019-04-09 06:00:00 9.2 8 Sudeste 12 Sudeste 0 -- -- 88
2019-04-09 05:00:00 9.3 9 Sudeste 13 Sudeste 0 -- -- 91
2019-04-09 04:00:00 9.1 6 Sudeste 11 Sudeste 0 -- -- 86
2019-04-09 03:00:00 9.5 6 Este 15 Este 0 -- -- 88
2019-04-09 02:00:00 9.6 9 Sudeste 12 Sudeste 0 -- -- 87
2019-04-09 01:00:00 10.2 3 Sudeste 6 Sudeste 0 -- -- 82
2019-04-09 00:00:00 10.5 0 Calma 13 Sur 0 -- -- 82
2019-04-08 23:00:00 11.2 6 Sur 14 Sudeste 0 -- -- 80
2019-04-08 22:00:00 11 7 Norte 18 Nordeste 0 -- -- 75
2019-04-08 21:00:00 12 10 Nordeste 24 Norte 0 -- -- 71
2019-04-08 20:00:00 13.9 17 Norte 26 Norte 0 -- -- 68
2019-04-08 19:00:00 13.9 16 Norte 28 Norte 0 -- -- 67
2019-04-08 18:00:00 15.5 17 Norte 30 Norte 0 -- -- 64
2019-04-08 17:00:00 15.5 17 Norte 30 Norte 0 -- -- 67
2019-04-08 16:00:00 15.9 17 Norte 34 Norte 0 -- -- 65
2019-04-08 15:00:00 15.9 14 Norte 30 Norte 0 -- -- 66
2019-04-08 14:00:00 15 19 Norte 33 Norte 0 -- -- 68
2019-04-08 13:00:00 15.3 15 Norte 29 Norte 0 -- -- 67
2019-04-08 12:00:00 14.6 14 Norte 27 Norte 0 -- -- 70
2019-04-08 11:00:00 13.3 12 Norte 22 Norte 0 -- -- 75
2019-04-08 10:00:00 12.6 12 Norte 23 Nordeste 0 -- -- 81
2019-04-08 09:00:00 11 6 Nordeste 17 Nordeste 0 -- -- 79
2019-04-08 08:00:00 10.3 8 Nordeste 17 Este 0 -- -- 79
2019-04-08 07:00:00 10.5 9 Este 14 Este 0 -- -- 79
2019-04-08 06:00:00 11.4 5 Este 17 Nordeste 0 -- -- 79
2019-04-08 05:00:00 11.4 10 Este 15 Nordeste 0 -- -- 83
2019-04-08 04:00:00 11.5 9 Nordeste 18 Este 0 -- -- 86
2019-04-08 03:00:00 11.4 5 Nordeste 13 Nordeste 0 -- -- 88
2019-04-08 02:00:00 11.3 11 Este 16 Este 0 -- -- 90
2019-04-08 01:00:00 11.6 6 Nordeste 12 Norte 0 -- -- 92
2019-04-08 00:00:00 11.9 5 Nordeste 18 Nordeste 0 -- -- 87
2019-04-07 23:00:00 11.7 10 Nordeste 17 Nordeste 0 -- -- 87
2019-04-07 22:00:00 11.5 12 Nordeste 17 Nordeste 0 -- -- 90
2019-04-07 21:00:00 12 10 Nordeste 19 Nordeste 0 -- -- 91
2019-04-07 20:00:00 14.1 13 Norte 22 Norte 0 -- -- 82
2019-04-07 19:00:00 14.9 15 Norte 27 Norte 0 -- -- 74
2019-04-07 18:00:00 15.4 14 Norte 25 Norte 0 -- -- 71
2019-04-07 17:00:00 13.8 17 Norte 24 Nordeste 0 -- -- 78
2019-04-07 16:00:00 13.6 9 Nordeste 17 Norte 0 -- -- 96
2019-04-07 15:00:00 14 5 Norte 19 Norte 0 -- -- 88
2019-04-07 14:00:00 13.8 10 Norte 22 Noroeste 0 -- -- 87
2019-04-07 13:00:00 14 9 Norte 18 Noroeste 0 -- -- 81
2019-04-07 12:00:00 13.7 5 Oeste 14 Oeste 0 -- -- 81
2019-04-07 11:00:00 13.9 5 Sudoeste 11 Sudoeste 0 -- -- 74
2019-04-07 10:00:00 12.8 3 Noroeste 7 Noroeste 0 -- -- 78
2019-04-07 09:00:00 11.4 0 Calma 4 Este 0 -- -- 86
2019-04-07 08:00:00 10.5 3 Sudeste 10 Sudeste 0 -- -- 87
2019-04-07 07:00:00 11.1 4 Sudeste 13 Sudeste 0 -- -- 84
2019-04-07 06:00:00 10.2 6 Sudeste 10 Sudeste 0 -- -- 89
2019-04-07 05:00:00 9.9 4 Este 8 Sudeste 0 -- -- 88
2019-04-07 04:00:00 10.1 5 Sudeste 8 Sudeste 0 -- -- 91
2019-04-07 03:00:00 11.2 3 Este 5 Este 0 -- -- 84
2019-04-07 02:00:00 11.5 0 Calma 5 Nordeste 0 -- -- 87
2019-04-07 01:00:00 11 2 Sudeste 13 Sudeste 0 -- -- 89
2019-04-07 00:00:00 10.8 3 Sudeste 21 Este 0 -- -- 83
2019-04-06 23:00:00 11.1 12 Este 30 Este 0 -- -- 79
2019-04-06 22:00:00 10.8 13 Este 21 Este 0 -- -- 80
2019-04-06 21:00:00 11.3 9 Nordeste 23 Nordeste 0 -- -- 85
2019-04-06 20:00:00 13.2 12 Norte 29 Norte 0 -- -- 76
2019-04-06 19:00:00 14.2 18 Norte 35 Norte 0 -- -- 72
2019-04-06 18:00:00 14.4 21 Norte 39 Nordeste 0 -- -- 70
2019-04-06 17:00:00 14.5 20 Norte 41 Norte 0 -- -- 71
2019-04-06 16:00:00 15 23 Norte 41 Nordeste 0 -- -- 69
2019-04-06 15:00:00 15 23 Norte 44 Nordeste 0 -- -- 69
2019-04-06 14:00:00 14.6 23 Norte 44 Norte 0 -- -- 72
2019-04-06 13:00:00 14.8 20 Norte 38 Norte 0 -- -- 66
2019-04-06 12:00:00 13.8 19 Norte 38 Norte 0 -- -- 70
2019-04-06 11:00:00 12.9 21 Norte 37 Norte 0 -- -- 78
2019-04-06 10:00:00 11.7 21 Norte 34 Nordeste 0 -- -- 73
2019-04-06 09:00:00 10.5 17 Nordeste 36 Nordeste 0 -- -- 71
2019-04-06 08:00:00 10 14 Nordeste 35 Norte 0 -- -- 79
2019-04-06 07:00:00 10.4 20 Nordeste 41 Nordeste 0 -- -- 71
2019-04-06 06:00:00 9.8 14 Nordeste 33 Nordeste 0 -- -- 84
2019-04-06 05:00:00 9.8 15 Nordeste 41 Nordeste 0 -- -- 89
2019-04-06 04:00:00 10.8 15 Nordeste 39 Nordeste 0 -- -- 71
2019-04-06 03:00:00 10.2 14 Nordeste 44 Nordeste 0 -- -- 83
2019-04-06 02:00:00 10.7 18 Nordeste 36 Nordeste 0 -- -- 91
2019-04-06 01:00:00 10.9 19 Nordeste 38 Norte 0 -- -- 88
2019-04-06 00:00:00 11 18 Nordeste 44 Norte 0 -- -- 89
2019-04-05 23:00:00 11.3 18 Norte 39 Nordeste 0 -- -- 87
2019-04-05 22:00:00 11.1 19 Nordeste 42 Norte 0 -- -- 86
2019-04-05 21:00:00 11.1 23 Nordeste 41 Norte 0 -- -- 84
2019-04-05 20:00:00 12.2 27 Norte 51 Norte 0 -- -- 77
2019-04-05 19:00:00 13 28 Norte 48 Norte 0 -- -- 81
2019-04-05 18:00:00 14.6 21 Norte 43 Norte 0 -- -- 73
2019-04-05 17:00:00 13.6 22 Norte 45 Norte 0 -- -- 78
2019-04-05 16:00:00 12.6 26 Norte 44 Norte 0.2 -- -- 90
2019-04-05 15:00:00 14.2 25 Norte 42 Nordeste 0 -- -- 81
2019-04-05 14:00:00 12.6 21 Norte 39 Norte 0 -- -- 92
2019-04-05 13:00:00 13.5 18 Norte 41 Norte 0 -- -- 82
2019-04-05 12:00:00 13.6 25 Norte 43 Norte 0 -- -- 82
2019-04-05 11:00:00 11.7 22 Norte 38 Norte 0 -- -- 89
2019-04-05 10:00:00 11.8 14 Nordeste 32 Norte 0 -- -- 84
2019-04-05 09:00:00 10.8 18 Norte 31 Norte 0 -- -- 92
2019-04-05 08:00:00 10 16 Norte 33 Norte 0.4 -- -- 94
2019-04-05 07:00:00 10.9 21 Norte 36 Norte 0 -- -- 90
2019-04-05 06:00:00 10.6 17 Nordeste 35 Este 0 -- -- 71
2019-04-05 05:00:00 10.1 13 Nordeste 33 Nordeste 0 -- -- 82
2019-04-05 04:00:00 10.3 12 Nordeste 30 Nordeste 0.2 -- -- 89
2019-04-05 03:00:00 11 17 Norte 30 Norte 0 -- -- 84
2019-04-05 02:00:00 10.8 14 Nordeste 40 Nordeste 0 -- -- 75
2019-04-05 01:00:00 10.6 19 Nordeste 35 Nordeste 0 -- -- 81
2019-04-05 00:00:00 10.6 18 Nordeste 39 Norte 0 -- -- 80
2019-04-04 23:00:00 10.7 15 Nordeste 31 Nordeste 0 -- -- 83
2019-04-04 22:00:00 10.5 15 Nordeste 35 Nordeste 0 -- -- 86
2019-04-04 21:00:00 10.8 17 Nordeste 35 Nordeste 0 -- -- 90
2019-04-04 20:00:00 11.5 19 Nordeste 36 Este 0.2 -- -- 82
2019-04-04 19:00:00 13.7 18 Nordeste 39 Norte 0 -- -- 83
2019-04-04 18:00:00 13.8 21 Norte 43 Norte 0 -- -- 84
2019-04-04 17:00:00 14.6 19 Nordeste 42 Norte 0 -- -- 79
2019-04-04 16:00:00 14.9 22 Norte 42 Norte 0 -- -- 68
2019-04-04 15:00:00 15.1 21 Norte 44 Norte 0 -- -- 75
2019-04-04 14:00:00 14.7 21 Norte 41 Norte 0 -- -- 79
2019-04-04 13:00:00 13.7 19 Nordeste 35 Nordeste 0 -- -- 83
2019-04-04 12:00:00 12.4 15 Nordeste 33 Norte 0 -- -- 93
2019-04-04 11:00:00 12.2 19 Nordeste 35 Nordeste 0 -- -- 92
2019-04-04 10:00:00 10.5 16 Nordeste 35 Nordeste 0.2 -- -- 97
2019-04-04 09:00:00 10.2 17 Nordeste 41 Nordeste 0.4 -- -- 98
2019-04-04 08:00:00 10.2 19 Nordeste 39 Nordeste 0.8 -- -- 97
2019-04-04 07:00:00 10.4 14 Nordeste 45 Nordeste 0 -- -- 94
2019-04-04 06:00:00 10.2 18 Nordeste 41 Nordeste 0.8 -- -- 96
2019-04-04 05:00:00 10.3 21 Nordeste 37 Norte 0 -- -- 97
2019-04-04 04:00:00 10.7 21 Norte 40 Norte 0.4 -- -- 98
2019-04-04 03:00:00 10.2 12 Nordeste 28 Nordeste 0.8 -- -- 96
2019-04-04 02:00:00 9.9 12 Nordeste 36 Nordeste 0 -- -- 91
2019-04-04 01:00:00 9.5 14 Nordeste 27 Nordeste 0 -- -- 90
2019-04-04 00:00:00 9.6 8 Nordeste 20 Nordeste 0.2 -- -- 95
2019-04-03 23:00:00 9.9 8 Nordeste 24 Norte 0.2 -- -- 98
2019-04-03 22:00:00 10.5 9 Norte 20 Noroeste 1.2 -- -- 95
2019-04-03 21:00:00 11.2 11 Noroeste 19 Oeste 0 -- -- 95
2019-04-03 20:00:00 12.3 10 Norte 18 Norte 0 -- -- 86
2019-04-03 19:00:00 12.9 11 Nordeste 22 Norte 0 -- -- 76
2019-04-03 18:00:00 13.5 8 Norte 26 Noroeste 0 -- -- 77
2019-04-03 17:00:00 14.3 12 Norte 24 Norte 0 -- -- 72
2019-04-03 16:00:00 14.7 14 Norte 26 Noroeste 0 -- -- 80
2019-04-03 15:00:00 14.1 11 Norte 23 Noroeste 0 -- -- 79
2019-04-03 14:00:00 12.9 10 Noroeste 24 Noroeste 0 -- -- 86
2019-04-03 13:00:00 12.1 10 Norte 22 Norte 0.2 -- -- 94
2019-04-03 12:00:00 11.6 8 Noroeste 21 Norte 2.8 -- -- 94
2019-04-03 11:00:00 12.2 13 Norte 21 Noroeste 0 -- -- 90
2019-04-03 10:00:00 10.9 7 Nordeste 18 Noroeste 0 -- -- 91
2019-04-03 09:00:00 10.3 8 Nordeste 19 Este 0 -- -- 89
2019-04-03 08:00:00 10 6 Nordeste 17 Nordeste 0 -- -- 95
2019-04-03 07:00:00 9.9 10 Nordeste 23 Este 0 -- -- 93
2019-04-03 06:00:00 9.1 12 Nordeste 21 Nordeste 0 -- -- 87
2019-04-03 05:00:00 9.4 15 Nordeste 25 Nordeste 0 -- -- 88
2019-04-03 04:00:00 9.4 13 Nordeste 19 Nordeste 0 -- -- 88
2019-04-03 03:00:00 9.4 6 Este 14 Sudeste 0 -- -- 78
2019-04-03 02:00:00 9.7 5 Sudeste 17 Este 0 -- -- 84
2019-04-03 01:00:00 9.9 11 Este 18 Nordeste 0 -- -- 76
2019-04-03 00:00:00 10.4 12 Nordeste 22 Nordeste 0 -- -- 78
2019-04-02 23:00:00 10.7 10 Nordeste 25 Nordeste 0 -- -- 77
2019-04-02 22:00:00 10.8 9 Nordeste 22 Nordeste 0 -- -- 77
2019-04-02 21:00:00 11.1 10 Nordeste 25 Nordeste 0 -- -- 84
2019-04-02 20:00:00 14 6 Norte 30 Norte 0 -- -- 74
2019-04-02 19:00:00 15 13 Nordeste 32 Norte 0 -- -- 67
2019-04-02 18:00:00 15 16 Norte 28 Norte 0 -- -- 71
2019-04-02 17:00:00 15 15 Norte 27 Norte 0 -- -- 73
2019-04-02 16:00:00 13.7 9 Norte 18 Norte 0 -- -- 79
2019-04-02 15:00:00 14.1 6 Oeste 14 Oeste 0 -- -- 80
2019-04-02 14:00:00 13.6 5 Noroeste 15 Oeste 0 -- -- 79
2019-04-02 13:00:00 13.7 9 Sudoeste 15 Sudoeste 0 -- -- 76
2019-04-02 12:00:00 12.5 6 Noroeste 12 Noroeste 0 -- -- 80
2019-04-02 11:00:00 12.8 7 Sur 17 Sudeste 0 -- -- 80
2019-04-02 10:00:00 10.8 8 Sudeste 13 Sudeste 0.2 -- -- 91
2019-04-02 09:00:00 10.1 3 Sudeste 12 Sudeste 0.2 -- -- 92
2019-04-02 08:00:00 9.7 3 Sudeste 10 Sudeste 0 -- -- 91
2019-04-02 07:00:00 9.2 3 Sur 11 Este 0 -- -- 94
2019-04-02 06:00:00 9 3 Norte 18 Este 0.8 -- -- 95
2019-04-02 05:00:00 9.3 13 Nordeste 37 Nordeste 1.4 -- -- 90
2019-04-02 04:00:00 9.5 20 Nordeste 33 Nordeste 1 -- -- 87
2019-04-02 03:00:00 9.7 18 Nordeste 33 Nordeste 1.2 -- -- 87
2019-04-02 02:00:00 10.2 10 Este 32 Este 0.2 -- -- 82
2019-04-02 01:00:00 9.7 9 Este 33 Nordeste 0.6 -- -- 89
2019-04-02 00:00:00 9.8 22 Nordeste 41 Este 1 -- -- 85
2019-04-01 23:00:00 9.7 12 Nordeste 36 Nordeste 2.4 -- -- 85
2019-04-01 22:00:00 9.8 21 Nordeste 35 Nordeste 2.8 -- -- 88
2019-04-01 21:00:00 10.2 15 Nordeste 24 Este 1.4 -- -- 89
2019-04-01 20:00:00 10.5 12 Nordeste 19 Nordeste 0.6 -- -- 91
2019-04-01 19:00:00 11.2 9 Nordeste 12 Nordeste 2 -- -- 95
2019-04-01 18:00:00 11.1 7 Sudeste 12 Sudeste 3 -- -- 94
2019-04-01 17:00:00 11.6 7 Sudeste 17 Sudoeste 3 -- -- 93
2019-04-01 16:00:00 12.5 5 Sudoeste 18 Sudoeste 0.2 -- -- 96
2019-04-01 15:00:00 12.8 10 Sur 20 Sur 0 -- -- 91
2019-04-01 14:00:00 12.9 14 Sur 21 Sur 0 -- -- 91
2019-04-01 13:00:00 13.6 12 Sur 21 Sudoeste 0 -- -- 87
2019-04-01 12:00:00 13.6 12 Sur 20 Sur 0 -- -- 88
2019-04-01 11:00:00 13.3 4 Oeste 10 Oeste 0 -- -- 80
2019-04-01 10:00:00 12.4 0 Calma 3 Oeste 0 -- -- 77
2019-04-01 09:00:00 11 3 Este 6 Sudeste 0 -- -- 84
2019-04-01 08:00:00 10.9 2 Sudeste 15 Nordeste 0 -- -- 80
2019-04-01 07:00:00 11 9 Nordeste 17 Nordeste 0 -- -- 82
2019-04-01 06:00:00 11 9 Nordeste 16 Nordeste 0 -- -- 85
2019-04-01 05:00:00 10.7 8 Nordeste 20 Nordeste 0 -- -- 86
2019-04-01 04:00:00 10.4 10 Nordeste 20 Este 0 -- -- 86
2019-04-01 03:00:00 10.3 14 Nordeste 21 Nordeste 0 -- -- 90
2019-04-01 02:00:00 10.3 14 Nordeste 22 Nordeste 0 -- -- 88
2019-04-01 01:00:00 10.7 13 Nordeste 21 Norte 0 -- -- 87
2019-04-01 00:00:00 11.3 9 Nordeste 18 Este 0 -- -- 90
2019-03-31 23:00:00 10.7 9 Nordeste 22 Nordeste 0 -- -- 82
2019-03-31 22:00:00 11 8 Nordeste 21 Nordeste 0 -- -- 86
2019-03-31 21:00:00 11.7 16 Nordeste 26 Nordeste 0 -- -- 82
2019-03-31 20:00:00 13.4 15 Nordeste 31 Norte 0 -- -- 76
2019-03-31 19:00:00 14.9 15 Nordeste 30 Norte 0 -- -- 69
2019-03-31 18:00:00 15.2 16 Norte 30 Norte 0 -- -- 73
2019-03-31 17:00:00 15.1 18 Norte 26 Norte 0 -- -- 68
2019-03-31 16:00:00 15.1 16 Norte 23 Norte 0 -- -- 78
2019-03-31 15:00:00 15.1 15 Norte 32 Nordeste 0 -- -- 84
2019-03-31 14:00:00 13.6 20 Norte 33 Nordeste 0 -- -- 92
2019-03-31 13:00:00 12.6 20 Norte 35 Norte 0 -- -- 96
2019-03-31 12:00:00 11.9 15 Norte 32 Nordeste 1.4 -- -- 99
2019-03-31 11:00:00 11.9 11 Nordeste 27 Norte 0.6 -- -- 98
2019-03-31 10:00:00 11.9 12 Norte 25 Norte 0.4 -- -- 96
2019-03-31 09:00:00 11.7 13 Nordeste 26 Nordeste 0 -- -- 91
2019-03-31 08:00:00 11.4 13 Nordeste 23 Nordeste 0 -- -- 92
2019-03-31 07:00:00 11.1 14 Nordeste 27 Nordeste 0 -- -- 94
2019-03-31 06:00:00 11.1 10 Nordeste 23 Nordeste 0 -- -- 94
2019-03-31 05:00:00 10.4 12 Nordeste 22 Nordeste 0 -- -- 92
2019-03-31 04:00:00 11.1 10 Nordeste 19 Nordeste 0 -- -- 93
2019-03-31 00:00:00 11.8 10 Nordeste 22 Nordeste 0 -- -- 91
2019-03-30 23:00:00 10.7 11 Nordeste 19 Nordeste 0 -- -- 87
2019-03-30 22:00:00 11 12 Nordeste 21 Nordeste 0 -- -- 75
2019-03-30 21:00:00 11.3 12 Nordeste 22 Nordeste 0 -- -- 72
2019-03-30 20:00:00 11.8 10 Nordeste 23 Nordeste 0 -- -- 90
2019-03-30 19:00:00 13.7 14 Norte 25 Norte 0 -- -- 81
2019-03-30 18:00:00 14.4 16 Norte 31 Norte 0 -- -- 77
2019-03-30 17:00:00 15.6 17 Norte 32 Norte 0 -- -- 73
2019-03-30 16:00:00 15.7 21 Norte 33 Norte 0 -- -- 69
2019-03-30 15:00:00 15.8 20 Norte 35 Norte 0 -- -- 69
2019-03-30 14:00:00 15.1 21 Norte 33 Norte 0 -- -- 66
2019-03-30 13:00:00 15.3 17 Norte 27 Norte 0 -- -- 68
2019-03-30 12:00:00 15 14 Norte 27 Norte 0 -- -- 69
2019-03-30 11:00:00 14.1 17 Norte 28 Norte 0 -- -- 74
2019-03-30 10:00:00 13.2 14 Norte 26 Norte 0 -- -- 79
2019-03-30 09:00:00 11.3 9 Nordeste 23 Norte 0.4 -- -- 80
2019-03-30 08:00:00 10.4 13 Nordeste 24 Norte 0 -- -- 83
2019-03-30 07:00:00 9.6 10 Nordeste 23 Nordeste 0 -- -- 84
2019-03-30 06:00:00 9 10 Nordeste 22 Este 0 -- -- 84
2019-03-30 05:00:00 9.6 10 Nordeste 23 Nordeste 0 -- -- 78
2019-03-30 04:00:00 9.3 13 Nordeste 20 Nordeste 0 -- -- 88
2019-03-30 03:00:00 9.8 12 Nordeste 18 Nordeste 0 -- -- 88
2019-03-30 02:00:00 9.9 9 Nordeste 16 Nordeste 0 -- -- 89
2019-03-30 01:00:00 9.9 9 Nordeste 19 Nordeste 0 -- -- 76
2019-03-30 00:00:00 10 12 Nordeste 19 Nordeste 0 -- -- 82
2019-03-29 23:00:00 10.1 10 Nordeste 15 Nordeste 0 -- -- 85
2019-03-29 22:00:00 10.4 7 Nordeste 13 Nordeste 0 -- -- 73
2019-03-29 21:00:00 10.6 10 Este 15 Nordeste 0 -- -- 75
2019-03-29 20:00:00 11.3 8 Nordeste 15 Norte 0 -- -- 84
2019-03-29 19:00:00 14 7 Nordeste 15 Norte 0 -- -- 66
2019-03-29 18:00:00 14.6 6 Norte 28 Oeste 0 -- -- 62
2019-03-29 17:00:00 13.8 7 Norte 18 Norte 0 -- -- 69
2019-03-29 16:00:00 13.9 9 Norte 22 Noroeste 0 -- -- 74
2019-03-29 15:00:00 14.5 9 Noroeste 26 Oeste 0 -- -- 71
2019-03-29 14:00:00 14.2 12 Oeste 21 Oeste 0 -- -- 82
2019-03-29 13:00:00 13.6 9 Oeste 18 Sudoeste 0 -- -- 82
2019-03-29 12:00:00 13.4 9 Oeste 20 Sudoeste 0 -- -- 85
2019-03-29 11:00:00 13.2 7 Oeste 13 Oeste 0 -- -- 80
2019-03-29 10:00:00 12.7 6 Oeste 11 Sudoeste 0 -- -- 83
2019-03-29 09:00:00 11.9 7 Sur 12 Sudeste 0 -- -- 84
2019-03-29 08:00:00 10.1 9 Sudeste 12 Sudeste 0 -- -- 88
2019-03-29 07:00:00 9 4 Sudeste 12 Sudeste 0 -- -- 89
2019-03-29 06:00:00 9.2 7 Sudeste 14 Sudeste 0 -- -- 87
2019-03-29 05:00:00 9.1 8 Sudeste 11 Sudeste 0 -- -- 85
2019-03-29 04:00:00 8.8 7 Sudeste 13 Sudeste 0 -- -- 73
2019-03-29 03:00:00 9.9 11 Sudeste 15 Sudeste 0 -- -- 88
2019-03-29 02:00:00 10.6 5 Sur 13 Sur 0 -- -- 91
2019-03-29 01:00:00 11.2 8 Sur 15 Sur 0 -- -- 93
2019-03-29 00:00:00 10.5 5 Sudeste 13 Sudeste 0 -- -- 89
2019-03-28 23:00:00 10.9 5 Sudeste 9 Sudeste 0 -- -- 89
2019-03-28 22:00:00 11.2 0 Calma 8 Sudeste 0 -- -- 86
2019-03-28 21:00:00 11.5 0 Calma 5 Este 0 -- -- 87
2019-03-28 20:00:00 12.5 4 Norte 10 Oeste 0 -- -- 89
2019-03-28 19:00:00 15.2 6 Oeste 15 Oeste 0 -- -- 80
2019-03-28 18:00:00 15.5 8 Oeste 17 Sudoeste 0 -- -- 78
2019-03-28 17:00:00 15 8 Oeste 20 Oeste 0 -- -- 79
2019-03-28 16:00:00 13.5 9 Sudoeste 23 Oeste 0 -- -- 91
2019-03-28 15:00:00 13.6 14 Sudoeste 24 Sudoeste 0 -- -- 94
2019-03-28 14:00:00 14.1 11 Sudoeste 19 Sur 0 -- -- 89
2019-03-28 13:00:00 13.6 13 Sur 23 Sudoeste 0 -- -- 88
2019-03-28 12:00:00 14.1 13 Sur 19 Sur 0 -- -- 89
2019-03-28 11:00:00 13.7 11 Sur 17 Sur 0 -- -- 90
2019-03-28 10:00:00 13.7 9 Sur 17 Sur 0 -- -- 88
2019-03-28 09:00:00 12.6 10 Sur 15 Sur 0 -- -- 85
2019-03-28 08:00:00 10 6 Sur 10 Sur 0 -- -- 89
2019-03-28 07:00:00 8.9 4 Sudeste 8 Sudeste 0 -- -- 87
2019-03-28 06:00:00 9.9 3 Este 6 Sudeste 0 -- -- 89
2019-03-28 05:00:00 10.2 3 Sudeste 6 Sudeste 0 -- -- 91
2019-03-28 04:00:00 10 4 Este 10 Sudeste 0 -- -- 87
2019-03-28 03:00:00 10.1 8 Sudeste 10 Sudeste 0 -- -- 88
2019-03-28 02:00:00 10.5 6 Este 14 Este 0 -- -- 84
2019-03-28 01:00:00 10.8 8 Nordeste 16 Nordeste 0 -- -- 85
2019-03-28 00:00:00 11 8 Nordeste 16 Este 0 -- -- 91
2019-03-27 23:00:00 10.6 6 Nordeste 12 Nordeste 0 -- -- 91
2019-03-27 22:00:00 11.3 5 Nordeste 13 Este 0 -- -- 88
2019-03-27 21:00:00 11.8 10 Nordeste 18 Nordeste 0 -- -- 89
2019-03-27 20:00:00 12.3 8 Nordeste 17 Nordeste 0 -- -- 91
2019-03-27 19:00:00 13.9 12 Nordeste 28 Norte 0 -- -- 88
2019-03-27 18:00:00 15.5 15 Norte 28 Norte 0 -- -- 83
2019-03-27 17:00:00 15.3 10 Norte 24 Norte 0 -- -- 81
2019-03-27 16:00:00 16.2 12 Norte 23 Norte 0 -- -- 75
2019-03-27 15:00:00 15.3 8 Nordeste 18 Nordeste 0.2 -- -- 80
2019-03-27 14:00:00 13.8 5 Norte 18 Norte 0 -- -- 91
2019-03-27 13:00:00 14.2 11 Norte 24 Norte 0 -- -- 86
2019-03-27 12:00:00 14.8 14 Norte 27 Norte 0 -- -- 81
2019-03-27 11:00:00 13.7 13 Norte 26 Norte 0 -- -- 89
2019-03-27 10:00:00 13 10 Nordeste 25 Norte 0 -- -- 92
2019-03-27 09:00:00 12.5 11 Nordeste 26 Nordeste 0 -- -- 92
2019-03-27 08:00:00 11.1 10 Nordeste 21 Nordeste 0 -- -- 91
2019-03-27 07:00:00 10.8 11 Nordeste 21 Nordeste 0 -- -- 93
2019-03-27 06:00:00 10.9 9 Este 20 Este 0 -- -- 94
2019-03-27 05:00:00 11.3 7 Nordeste 19 Nordeste 0 -- -- 97
2019-03-27 04:00:00 11.4 10 Nordeste 27 Norte 0 -- -- 96
2019-03-27 03:00:00 11.4 11 Nordeste 24 Nordeste 0 -- -- 94
2019-03-27 02:00:00 11.8 12 Nordeste 22 Este 0 -- -- 87
2019-03-27 01:00:00 11.3 11 Este 24 Este 0 -- -- 85
2019-03-27 00:00:00 11.4 10 Este 24 Nordeste 0 -- -- 81
2019-03-26 23:00:00 11.7 12 Nordeste 29 Norte 0 -- -- 90
2019-03-26 22:00:00 12.1 18 Nordeste 36 Nordeste 0 -- -- 94
2019-03-26 21:00:00 12.5 19 Nordeste 37 Norte 0 -- -- 94
2019-03-26 20:00:00 12.9 21 Norte 42 Norte 0 -- -- 91
2019-03-26 19:00:00 13.5 21 Norte 37 Norte 0 -- -- 91
2019-03-26 18:00:00 16.2 17 Norte 39 Norte 0 -- -- 66
2019-03-26 17:00:00 16.2 26 Norte 46 Norte 0 -- -- 79
2019-03-26 16:00:00 17.5 18 Nordeste 42 Norte 0 -- -- 65
2019-03-26 15:00:00 16.7 23 Norte 46 Norte 0 -- -- 78
2019-03-26 14:00:00 16.2 27 Norte 42 Norte -- -- -- 83
2019-03-26 13:00:00 15.3 23 Norte 39 Norte 0 -- -- 87
2019-03-26 12:00:00 14 15 Nordeste 37 Nordeste 0 -- -- 90
2019-03-26 11:00:00 13.4 20 Nordeste 44 Nordeste 0 -- -- 93
2019-03-26 10:00:00 13.3 14 Norte 36 Norte 0.2 -- -- 93
2019-03-26 09:00:00 13 15 Norte 30 Nordeste 0 -- -- 91
2019-03-26 08:00:00 12.6 16 Nordeste 42 Nordeste 0 -- -- 87
2019-03-26 07:00:00 12.3 17 Nordeste 39 Nordeste 0 -- -- 91
2019-03-26 06:00:00 12 13 Norte 25 Norte 0 -- -- 95
2019-03-26 05:00:00 10.6 9 Nordeste 17 Nordeste 0 -- -- 89
2019-03-26 04:00:00 9.9 8 Nordeste 15 Nordeste 0 -- -- 84
2019-03-26 03:00:00 10.4 8 Nordeste 14 Nordeste 0 -- -- 76
2019-03-26 02:00:00 10.3 5 Norte 13 Nordeste 0 -- -- 78
2019-03-26 01:00:00 10.5 8 Nordeste 19 Nordeste 0 -- -- 78
2019-03-26 00:00:00 9.6 9 Nordeste 14 Este 0 -- -- 87
2019-03-25 23:00:00 9.6 3 Norte 18 Este 0 -- -- 86
2019-03-25 22:00:00 9.6 12 Nordeste 19 Nordeste 0.2 -- -- 92
2019-03-25 21:00:00 9.5 8 Nordeste 15 Nordeste 0 -- -- 93
2019-03-25 20:00:00 11 9 Nordeste 17 Norte 0 -- -- 96
2019-03-25 19:00:00 11.6 2 Norte 5 Norte 0 -- -- 91
2019-03-25 18:00:00 11.4 2 Nordeste 9 Sudoeste 1.2 -- -- 93
2019-03-25 17:00:00 11.9 4 Sudoeste 13 Sudoeste 1.4 -- -- 95
2019-03-25 16:00:00 12.3 5 Sudoeste 13 Sur 0 -- -- 95
2019-03-25 15:00:00 12 9 Sur 18 Sudoeste 1.4 -- -- 96
2019-03-25 14:00:00 11.9 11 Sur 21 Sur 0.2 -- -- 95
2019-03-25 13:00:00 13.4 10 Sudoeste 21 Sudoeste 0.6 -- -- 92
2019-03-25 12:00:00 11.7 4 Sur 17 Sur 0.8 -- -- 91
2019-03-25 11:00:00 12.7 6 Oeste 11 Oeste 0 -- -- 88
2019-03-25 10:00:00 11.9 4 Sudoeste 10 Sudoeste 0 -- -- 88
2019-03-25 09:00:00 11.7 8 Sur 12 Sur 0 -- -- 83
2019-03-25 08:00:00 9.8 2 Sur 6 Nordeste 0 -- -- 86
2019-03-25 07:00:00 10 5 Nordeste 25 Nordeste 0 -- -- 83
2019-03-25 06:00:00 9.9 6 Sur 15 Sur 0.2 -- -- 85
2019-03-25 05:00:00 9.7 4 Sur 8 Este 0 -- -- 94
2019-03-25 04:00:00 10.1 5 Este 10 Sudeste 3.4 -- -- 92
2019-03-25 03:00:00 11 0 Calma 15 Sur 3.4 -- -- 93
2019-03-25 02:00:00 11.4 9 Sur 17 Sudeste 0 -- -- 85
2019-03-25 01:00:00 11.5 13 Sur 19 Sur 0 -- -- 87
2019-03-25 00:00:00 11.6 11 Sur 20 Sur 0 -- -- 88